Flight Track Log - Related Links

Times and Time Zones

All times are in EDT time to prevent confusion due to time zone crossing. See the FLG3780 flight status page for this flight to view local times or setup timezone preferences in your user account.

Time Position Orientation Groundspeed Altitude Reporting Facility
EDT Latitude Longitude Course Direction KTS MPH feet Rate Location/Type
Thu 09:30:35 AM 42.7503 -73.8283 283° West 147 169 1,300  Level Boston Center
Thu 09:31:05 AM 42.7542 -73.8567 281° West 154 177 2,100 1,978 Climbing Boston Center
Thu 09:32:06 AM 42.7911 -73.9056 316° Northwest 201 231 4,300 2,299 Climbing Boston Center
Thu 09:32:52 AM 42.8303 -73.9492 321° Northwest 232 267 6,200 2,547 Climbing Boston Center
Thu 09:33:00 AM 42.8045 -74.1311 281° West  Level FlightAware Approximate
Thu 09:33:52 AM 42.8814 -74.0097 319° Northwest 245 282 8,800  Level Boston Center
Thu 09:34:00 AM 42.8209 -74.2458 281° West  Level FlightAware Approximate
Thu 09:35:00 AM 42.8379 -74.3604 283° West  Level FlightAware Approximate
Thu 09:35:04 AM 42.9369 -74.0736 320° Northwest 252 290 10,700  Level Boston Center
Thu 09:36:04 AM 43.0189 -74.1667 320° Northwest 298 343 12,800 2,000 Climbing Boston Center
Thu 09:37:04 AM 43.0358 -74.2694 283° West 296 341 14,700 1,950 Climbing Boston Center
Thu 09:38:04 AM 43.0464 -74.3975 276° West 307 353 16,700 1,750 Climbing Boston Center
Thu 09:39:04 AM 43.0528 -74.5114 274° West 328 377 18,200 1,500 Climbing Boston Center
Thu 09:40:04 AM 43.0647 -74.6483 277° West 328 377 19,700 1,150 Climbing Boston Center
Thu 09:41:04 AM 43.0725 -74.7794 275° West 338 389 20,500 800 Climbing Boston Center
Thu 09:42:04 AM 43.0822 -74.9133 276° West 343 395 21,300 850 Climbing Boston Center
Thu 09:43:04 AM 43.0894 -75.0531 274° West 363 418 22,200 900 Climbing Boston Center
Thu 09:44:04 AM 43.0986 -75.1928 275° West 370 426 23,100 850 Climbing Boston Center
Thu 09:45:04 AM 43.0931 -75.3347 267° West 370 426 23,900 750 Climbing Boston Center
Thu 09:46:04 AM 43.0875 -75.4739 267° West 365 420 24,600 650 Climbing Boston Center
Thu 09:47:04 AM 43.0836 -75.6158 268° West 365 420 25,200 600 Climbing Boston Center
Thu 09:48:04 AM 43.0797 -75.7519 268° West 365 420 25,800 650 Climbing Boston Center
Thu 09:49:04 AM 43.0733 -75.8967 267° West 365 420 26,500 578 Climbing Boston Center
Thu 09:50:50 AM 43.0642 -76.1269 267° West 374 430 27,400 542 Climbing Cleveland Center
Thu 09:51:50 AM 43.0547 -76.2611 265° West 368 423 28,000 300 Climbing Cleveland Center
Thu 09:52:50 AM 43.0514 -76.3978 268° West 368 423 28,000  Level Cleveland Center
Thu 09:53:50 AM 43.0458 -76.5317 267° West 368 423 28,000  Level Cleveland Center
Thu 09:54:50 AM 43.0400 -76.6656 267° West 368 423 28,000  Level Cleveland Center
Thu 09:55:50 AM 43.0319 -76.8025 265° West 368 423 28,000  Level Cleveland Center
Thu 09:56:50 AM 43.0258 -76.9364 266° West 368 423 28,000  Level Cleveland Center
Thu 09:57:50 AM 43.0197 -77.0731 267° West 368 423 28,000  Level Cleveland Center
Thu 09:58:50 AM 43.0114 -77.2100 265° West 368 423 28,000  Level Cleveland Center
Thu 09:59:50 AM 43.0047 -77.3439 266° West 368 423 28,000  Level Cleveland Center
Thu 10:00:50 AM 42.9981 -77.4775 266° West 368 423 28,000  Level Cleveland Center
Thu 10:01:50 AM 42.9892 -77.6172 265° West 368 423 28,000  Level Cleveland Center
Thu 10:02:50 AM 42.9825 -77.7708 267° West 368 423 28,000  Level Cleveland Center
Thu 10:03:50 AM 42.9753 -77.9072 266° West 368 423 28,000  Level Cleveland Center
Thu 10:04:50 AM 42.9658 -78.0439 265° West 368 423 28,000  Level Cleveland Center
Thu 10:05:50 AM 42.9583 -78.1833 266° West 374 430 28,000  Level Cleveland Center
Thu 10:06:50 AM 42.9508 -78.3253 266° West 374 430 28,000  Level Cleveland Center
Thu 10:07:50 AM 42.9408 -78.4619 264° West 369 425 28,000  Level Cleveland Center
Thu 10:08:50 AM 42.9331 -78.6039 266° West 369 425 28,000  Level Cleveland Center
Thu 10:09:50 AM 42.9167 -78.7406 261° West 369 425 28,000  Level Cleveland Center
Thu 10:10:50 AM 42.8978 -78.8828 260° West 374 430 28,000  Level Cleveland Center
Thu 10:11:50 AM 42.8769 -79.0222 259° West 374 430 28,000  Level Cleveland Center
Thu 10:12:50 AM 42.8558 -79.1614 258° West 374 430 28,000  Level Cleveland Center
Thu 10:13:50 AM 42.8386 -79.3006 260° West 374 430 28,000  Level Cleveland Center
Thu 10:14:50 AM 42.8150 -79.4397 257° West 374 430 28,000  Level Cleveland Center
Thu 10:15:50 AM 42.7994 -79.5503 259° West 374 430 28,000  Level Cleveland Center
Thu 10:16:50 AM 42.7758 -79.7150 259° West 374 430 28,000  Level Cleveland Center
Thu 10:17:50 AM 42.7558 -79.8536 259° West 374 430 28,000  Level Cleveland Center
Thu 10:18:50 AM 42.7442 -79.9922 264° West 374 430 28,000  Level Cleveland Center
Thu 10:19:50 AM 42.7408 -80.1336 268° West 374 430 28,000  Level Cleveland Center
Thu 10:20:50 AM 42.7328 -80.2722 266° West 369 425 28,000  Level Cleveland Center
Thu 10:21:50 AM 42.7289 -80.4108 268° West 369 425 28,000  Level Cleveland Center
Thu 10:22:50 AM 42.7208 -80.5436 265° West 363 418 28,000 -200 Level Cleveland Center
Thu 10:23:50 AM 42.7164 -80.6906 268° West 375 432 27,600 -900 Descending Cleveland Center
Thu 10:24:50 AM 42.7100 -80.8261 266° West 375 432 26,200 -1,200 Descending Cleveland Center
Thu 10:25:50 AM 42.7014 -80.9392 264° West 365 420 25,200 -1,100 Descending Cleveland Center
Thu 10:26:50 AM 42.6864 -81.0661 261° West 348 400 24,000 -1,200 Descending Cleveland Center
Thu 10:27:50 AM 42.6733 -81.1903 262° West 343 395 22,800 -1,200 Descending Cleveland Center
Thu 10:28:50 AM 42.6578 -81.3228 261° West 343 395 21,600 -1,200 Descending Cleveland Center
Thu 10:29:50 AM 42.6425 -81.4497 261° West 349 402 20,400 -1,200 Descending Cleveland Center
Thu 10:30:50 AM 42.6289 -81.5822 262° West 355 409 19,200 -1,200 Descending Cleveland Center
Thu 10:31:50 AM 42.6131 -81.6975 259° West 337 388 18,000 -1,100 Descending Cleveland Center
Thu 10:32:50 AM 42.5972 -81.8214 260° West 332 382 17,000 -1,100 Descending Cleveland Center
Thu 10:33:50 AM 42.5814 -81.9422 260° West 332 382 15,800 -1,200 Descending Cleveland Center
Thu 10:34:50 AM 42.5675 -82.0603 261° West 332 382 14,600 -1,200 Descending Cleveland Center
Thu 10:35:50 AM 42.5533 -82.1786 261° West 327 376 13,400 -1,200 Descending Cleveland Center
Thu 10:36:50 AM 42.5392 -82.2908 260° West 321 369 12,200 -1,037 Descending Cleveland Center
Thu 10:37:11 AM 42.5342 -82.3469 263° West 291 335 12,000 -200 Descending Cleveland Center
Thu 10:37:50 AM 42.5272 -82.3947 259° West 301 346 12,000  Level Cleveland Center
Thu 10:38:13 AM 42.5203 -82.4369 257° West 247 284 12,000  Level Cleveland Center
Thu 10:38:50 AM 42.5153 -82.4844 262° West 271 312 12,000  Level Cleveland Center
Thu 10:39:14 AM 42.5125 -82.5353 266° West 252 290 12,000 -900 Level Cleveland Center
Thu 10:39:50 AM 42.4972 -82.5742 242° Southwest 258 297 11,100 -1,970 Descending Cleveland Center
Thu 10:40:21 AM 42.4817 -82.6272 248° West 243 280 9,800 -1,900 Descending Cleveland Center
Thu 10:40:50 AM 42.4686 -82.6578 240° Southwest 247 284 9,200 -787 Descending Cleveland Center
Thu 10:41:22 AM 42.4508 -82.7106 245° Southwest 241 277 9,000 -200 Descending Cleveland Center
Thu 10:41:50 AM 42.4378 -82.7383 238° Southwest 247 284 9,000  Level Cleveland Center
Thu 10:42:24 AM 42.4244 -82.7856 249° West 195 224 9,000 -500 Level Cleveland Center
Thu 10:42:50 AM 42.4117 -82.8047 228° Southwest 227 261 8,500 -1,326 Descending Cleveland Center
Thu 10:43:50 AM 42.3814 -82.8628 235° Southwest 210 242 7,100 -928 Descending Cleveland Center
Thu 10:44:27 AM 42.3867 -82.9108 278° West 205 236 7,000 -100 Descending Cleveland Center
Thu 10:44:50 AM 42.3947 -82.9281 302° West 175 201 7,000  Level Cleveland Center
Thu 10:45:28 AM 42.4250 -82.9714 313° West 208 239 7,000  Level Cleveland Center
Thu 10:45:50 AM 42.4331 -82.9858 307° West 180 207 7,000  Level Cleveland Center
Thu 10:46:24 AM 42.4594 -83.0206 316° Northwest 191 220 7,000  Level Cleveland Center
Thu 10:46:50 AM 42.4694 -83.0378 308° West 187 215 7,000  Level Cleveland Center
Thu 10:47:25 AM 42.4831 -83.0806 293° West 169 194 7,000  Level Cleveland Center
Thu 10:48:23 AM 42.4792 -83.1339 264° West 149 171 7,000  Level FAA TRACON SMA TRACON (SMA)
Thu 10:48:43 AM 42.4697 -83.1489 230° Southwest 148 170 7,000 -600 Level FAA TRACON SMA TRACON (SMA)
Thu 10:49:03 AM 42.4589 -83.1572 210° Southwest 150 173 6,600 -1,350 Descending FAA TRACON SMA TRACON (SMA)
Thu 10:49:23 AM 42.4456 -83.1669 208° Southwest 148 170 6,100 -1,200 Descending FAA TRACON SMA TRACON (SMA)
Thu 10:49:43 AM 42.4347 -83.1750 209° Southwest 145 167 5,800 -1,024 Descending FAA TRACON SMA TRACON (SMA)
Thu 10:50:04 AM 42.4222 -83.1844 209° Southwest 145 167 5,400 -878 Descending FAA TRACON SMA TRACON (SMA)
Thu 10:50:24 AM 42.4103 -83.1933 209° Southwest 143 165 5,200 -769 Descending FAA TRACON SMA TRACON (SMA)
Thu 10:50:43 AM 42.3994 -83.2017 210° Southwest 153 176 4,900 -923 Descending FAA TRACON SMA TRACON (SMA)
Thu 10:51:03 AM 42.3881 -83.2103 209° Southwest 155 178 4,600 -750 Descending FAA TRACON SMA TRACON (SMA)
Thu 10:51:23 AM 42.3742 -83.2208 209° Southwest 155 178 4,400 -900 Descending FAA TRACON SMA TRACON (SMA)
Thu 10:51:43 AM 42.3625 -83.2292 208° Southwest 154 177 4,000 -1,050 Descending FAA TRACON SMA TRACON (SMA)
Thu 10:52:03 AM 42.3483 -83.2397 209° Southwest 155 178 3,700 -900 Descending FAA TRACON SMA TRACON (SMA)
Thu 10:52:23 AM 42.3369 -83.2478 208° Southwest 156 180 3,400 -900 Descending FAA TRACON SMA TRACON (SMA)
Thu 10:52:43 AM 42.3236 -83.2572 208° Southwest 151 174 3,100 -900 Descending FAA TRACON SMA TRACON (SMA)
Thu 10:53:03 AM 42.3106 -83.2678 211° Southwest 149 171 2,800 -750 Descending FAA TRACON SMA TRACON (SMA)
Thu 10:53:23 AM 42.3003 -83.2747 207° Southwest 147 169 2,600 -750 Descending FAA TRACON SMA TRACON (SMA)
Thu 10:53:43 AM 42.2872 -83.2844 209° Southwest 143 165 2,300 -900 Descending FAA TRACON SMA TRACON (SMA)

Login

Don't have an account? Register now (free) for customized features, flight alerts, and more!